createdAt,value
2023-11-24T00:04:08.054Z,10.58
2023-11-24T00:09:11.739Z,10.48
2023-11-24T00:14:15.084Z,10.58
2023-11-24T00:19:20.649Z,10.59
2023-11-24T00:24:24.678Z,10.57
2023-11-24T00:29:28.397Z,10.46
2023-11-24T00:34:33.170Z,10.31
2023-11-24T00:39:37.202Z,10.25
2023-11-24T00:44:40.446Z,10.27
2023-11-24T00:49:45.089Z,10.18
2023-11-24T00:54:48.422Z,10.24
2023-11-24T00:59:52.330Z,10.26
2023-11-24T01:04:57.297Z,10.06
2023-11-24T01:10:00.732Z,10.13
2023-11-24T01:15:04.063Z,10.23
2023-11-24T01:20:11.990Z,10.30
2023-11-24T01:25:15.396Z,10.24
2023-11-24T01:30:18.647Z,10.32
2023-11-24T01:35:23.292Z,10.23
2023-11-24T01:40:26.784Z,10.22
2023-11-24T01:45:30.367Z,10.28
2023-11-24T01:50:35.068Z,10.27
2023-11-24T01:55:38.513Z,10.25
2023-11-24T02:00:42.689Z,10.20
2023-11-24T02:05:47.565Z,10.05
2023-11-24T02:10:50.847Z,10.01
2023-11-24T02:15:57.443Z,9.96
2023-11-24T02:21:04.009Z,9.99
2023-11-24T02:26:10.455Z,9.97
2023-11-24T02:31:13.812Z,9.90
2023-11-24T02:36:22.484Z,9.74
2023-11-24T02:41:28.350Z,9.57
2023-11-24T02:46:31.661Z,9.56
2023-11-24T02:51:34.974Z,9.43
2023-11-24T02:56:39.804Z,9.43
2023-11-24T03:01:43.690Z,9.38
2023-11-24T03:06:47.134Z,9.50
2023-11-24T03:11:52.599Z,9.55
2023-11-24T03:16:56.039Z,9.57
2023-11-24T03:21:59.758Z,9.60
2023-11-24T03:27:04.813Z,9.59
2023-11-24T03:32:08.186Z,9.64
2023-11-24T03:37:11.562Z,9.65
2023-11-24T03:42:16.283Z,9.35
2023-11-24T03:47:20.062Z,9.25
2023-11-24T03:52:24.467Z,9.34
2023-11-24T03:57:29.150Z,9.34
2023-11-24T04:02:32.403Z,9.28
2023-11-24T04:07:36.057Z,9.21
2023-11-24T04:12:40.767Z,9.28
2023-11-24T04:17:44.195Z,9.05
2023-11-24T04:22:47.933Z,8.96
2023-11-24T04:27:52.629Z,9.11
2023-11-24T04:32:56.320Z,9.04
2023-11-24T04:37:59.615Z,8.88
2023-11-24T04:43:04.621Z,8.83
2023-11-24T04:48:09.572Z,8.79
2023-11-24T04:53:13.233Z,8.78
2023-11-24T04:58:17.858Z,8.82
2023-11-24T05:03:21.091Z,8.94
2023-11-24T05:08:24.371Z,8.94
2023-11-24T05:13:28.949Z,9.01
2023-11-24T05:18:32.167Z,9.01
2023-11-24T05:23:35.617Z,9.14
2023-11-24T05:28:40.338Z,9.23
2023-11-24T05:33:43.795Z,9.23
2023-11-24T05:38:47.244Z,9.17
2023-11-24T05:43:52.355Z,9.20
2023-11-24T05:48:55.595Z,9.08
2023-11-24T05:53:58.797Z,8.96
2023-11-24T05:59:03.387Z,8.93
2023-11-24T06:04:07.134Z,8.84
2023-11-24T06:09:10.676Z,8.86
2023-11-24T06:14:15.393Z,8.83
2023-11-24T06:19:18.683Z,8.83
2023-11-24T06:24:22.066Z,8.83
2023-11-24T06:29:26.965Z,8.83
2023-11-24T06:34:30.314Z,8.78
2023-11-24T06:39:33.560Z,8.77
2023-11-24T06:44:38.222Z,8.77
2023-11-24T06:49:41.451Z,8.65
2023-11-24T06:54:44.750Z,8.62
2023-11-24T06:59:49.403Z,8.68
2023-11-24T07:04:54.653Z,8.79
2023-11-24T07:09:58.092Z,8.83
2023-11-24T07:15:04.883Z,8.89
2023-11-24T07:20:12.854Z,8.95
2023-11-24T07:25:16.668Z,8.95
2023-11-24T07:30:24.120Z,9.07
2023-11-24T07:35:27.887Z,9.29
2023-11-24T07:40:31.792Z,9.26
2023-11-24T07:45:37.183Z,9.12
2023-11-24T07:50:40.437Z,9.09
2023-11-24T07:55:44.193Z,9.19
2023-11-24T08:00:48.824Z,9.21
2023-11-24T08:05:53.870Z,9.25
2023-11-24T08:10:58.090Z,9.21
2023-11-24T08:16:03.569Z,9.20
2023-11-24T08:21:07.265Z,9.18
2023-11-24T08:26:14.078Z,9.25
2023-11-24T08:31:20.902Z,9.56
2023-11-24T08:36:26.912Z,9.90
2023-11-24T08:41:35.589Z,10.10
2023-11-24T08:46:45.711Z,10.35
2023-11-24T08:51:48.748Z,10.54
2023-11-24T08:56:52.528Z,10.69
2023-11-24T09:01:57.887Z,10.85
2023-11-24T09:07:01.825Z,11.03
2023-11-24T09:12:06.984Z,11.10
2023-11-24T09:17:14.190Z,11.30
2023-11-24T09:22:17.600Z,11.49
2023-11-24T09:27:23.036Z,11.56
2023-11-24T09:32:27.783Z,11.74
2023-11-24T09:37:31.164Z,11.91
2023-11-24T09:42:41.557Z,12.01
2023-11-24T09:47:50.966Z,12.05
2023-11-24T09:52:57.165Z,12.16
2023-11-24T09:58:00.496Z,12.30
2023-11-24T10:03:09.184Z,12.48
2023-11-24T10:08:13.719Z,12.61
2023-11-24T10:13:17.224Z,12.79
2023-11-24T10:18:22.628Z,12.86
2023-11-24T10:23:30.089Z,12.96
2023-11-24T10:28:33.312Z,13.13
2023-11-24T10:33:38.206Z,13.28
2023-11-24T10:38:43.238Z,13.40
2023-11-24T10:43:51.056Z,13.49
2023-11-24T10:49:03.405Z,13.62
2023-11-24T10:54:10.324Z,13.76
2023-11-24T10:59:16.528Z,13.82
2023-11-24T11:04:23.877Z,13.84
2023-11-24T11:09:31.540Z,13.84
2023-11-24T11:14:35.112Z,13.95
2023-11-24T11:19:40.534Z,13.90
2023-11-24T11:24:43.968Z,14.08
2023-11-24T11:29:47.593Z,14.01
2023-11-24T11:34:53.164Z,14.07
2023-11-24T11:39:59.233Z,14.07
2023-11-24T11:45:11.640Z,14.22
2023-11-24T11:50:21.994Z,14.18
2023-11-24T11:55:27.001Z,14.22
2023-11-24T12:00:30.846Z,14.21
2023-11-24T12:05:36.168Z,14.34
2023-11-24T12:10:40.270Z,14.38
2023-11-24T12:15:44.907Z,14.42
2023-11-24T12:20:51.911Z,14.46
2023-11-24T12:25:56.335Z,14.52
2023-11-24T12:31:00.439Z,14.63
2023-11-24T12:36:06.795Z,14.63
2023-11-24T12:41:11.668Z,14.74
2023-11-24T12:46:22.345Z,14.91
2023-11-24T12:51:27.521Z,14.99
2023-11-24T12:56:30.938Z,15.15
2023-11-24T13:01:34.668Z,15.23
2023-11-24T13:06:39.737Z,15.41
2023-11-24T13:11:43.507Z,15.50
2023-11-24T13:16:47.195Z,16.22
2023-11-24T13:21:54.912Z,17.47
2023-11-24T13:27:01.178Z,18.45
2023-11-24T13:32:09.030Z,19.01
2023-11-24T13:37:13.731Z,19.19
2023-11-24T13:42:18.049Z,18.43
2023-11-24T13:47:21.304Z,17.45
2023-11-24T13:52:28.321Z,16.98
2023-11-24T13:57:31.573Z,16.85
2023-11-24T14:02:37.670Z,16.56
2023-11-24T14:07:46.245Z,16.76
2023-11-24T14:12:50.020Z,16.95
2023-11-24T14:17:53.493Z,17.30
2023-11-24T14:22:58.191Z,18.23
2023-11-24T14:28:01.755Z,18.86
2023-11-24T14:33:05.881Z,20.64
2023-11-24T14:38:10.762Z,21.45
2023-11-24T14:43:16.691Z,21.75
2023-11-24T14:48:20.075Z,22.50
2023-11-24T14:53:25.215Z,21.84
2023-11-24T14:58:29.011Z,21.35
2023-11-24T15:03:38.425Z,21.15
2023-11-24T15:08:50.188Z,20.87
2023-11-24T15:13:54.453Z,20.69
2023-11-24T15:18:59.559Z,20.49
2023-11-24T15:24:06.026Z,20.55
2023-11-24T15:29:11.256Z,20.33
2023-11-24T15:34:15.370Z,20.32
2023-11-24T15:39:36.122Z,19.94
2023-11-24T15:44:40.297Z,20.47
2023-11-24T15:49:44.031Z,20.63
2023-11-24T15:54:49.582Z,20.77
2023-11-24T15:59:53.267Z,20.63
2023-11-24T16:04:58.265Z,20.42
2023-11-24T16:10:15.848Z,19.58
2023-11-24T16:15:19.502Z,19.01
2023-11-24T16:20:23.975Z,18.58
2023-11-24T16:25:28.834Z,18.15
2023-11-24T16:30:32.681Z,17.58
2023-11-24T16:35:36.350Z,16.91
2023-11-24T16:40:41.238Z,16.73
2023-11-24T16:45:44.696Z,16.34
2023-11-24T16:50:48.974Z,15.98
2023-11-24T16:55:53.794Z,15.62
2023-11-24T17:00:57.186Z,15.43
2023-11-24T17:06:00.634Z,15.27
2023-11-24T17:11:07.519Z,14.99
2023-11-24T17:16:12.799Z,14.74
2023-11-24T17:21:16.267Z,14.54
2023-11-24T17:26:21.141Z,14.34
2023-11-24T17:31:25.740Z,14.16
2023-11-24T17:36:30.007Z,14.01
2023-11-24T17:41:35.198Z,13.96
2023-11-24T17:46:39.990Z,13.73
2023-11-24T17:51:44.028Z,13.58
2023-11-24T17:56:50.413Z,13.54
2023-11-24T18:01:53.975Z,13.43
2023-11-24T18:06:57.518Z,13.43
2023-11-24T18:12:02.476Z,13.31
2023-11-24T18:17:07.345Z,13.30
2023-11-24T18:22:10.900Z,13.12
2023-11-24T18:27:15.804Z,12.95
2023-11-24T18:32:19.381Z,12.84
2023-11-24T18:37:22.908Z,12.81
2023-11-24T18:42:27.781Z,12.83
2023-11-24T18:47:31.877Z,12.63
2023-11-24T18:52:36.088Z,12.52
2023-11-24T18:57:44.335Z,12.55
2023-11-24T19:02:48.975Z,12.45
2023-11-24T19:07:52.910Z,12.28
2023-11-24T19:12:58.358Z,12.14
2023-11-24T19:18:02.300Z,11.92
2023-11-24T19:23:05.944Z,11.85
2023-11-24T19:28:12.407Z,11.94
2023-11-24T19:33:15.882Z,11.91
2023-11-24T19:38:19.245Z,11.84
2023-11-24T19:43:24.297Z,11.74
2023-11-24T19:48:30.592Z,11.64
2023-11-24T19:53:34.023Z,11.51
2023-11-24T19:58:38.903Z,11.41
2023-11-24T20:03:42.369Z,11.54
2023-11-24T20:08:46.448Z,11.54
2023-11-24T20:13:51.359Z,11.39
2023-11-24T20:18:55.233Z,11.33
2023-11-24T20:23:58.745Z,11.27
2023-11-24T20:29:04.320Z,11.28
2023-11-24T20:34:08.978Z,11.31
2023-11-24T20:39:14.862Z,11.14
2023-11-24T20:44:20.556Z,11.01
2023-11-24T20:49:25.210Z,10.99
2023-11-24T20:54:28.805Z,10.93
2023-11-24T20:59:35.488Z,10.88
2023-11-24T21:04:39.125Z,10.87
2023-11-24T21:09:42.928Z,10.75
2023-11-24T21:14:47.904Z,10.74
2023-11-24T21:19:52.741Z,10.66
2023-11-24T21:24:57.160Z,10.83
2023-11-24T21:30:02.044Z,11.03
2023-11-24T21:35:06.035Z,11.01
2023-11-24T21:40:14.359Z,10.87
2023-11-24T21:45:19.596Z,10.97
2023-11-24T21:50:23.597Z,11.04
2023-11-24T21:55:27.131Z,11.07
2023-11-24T22:00:32.086Z,11.10
2023-11-24T22:05:36.109Z,11.04
2023-11-24T22:10:39.594Z,10.99
2023-11-24T22:15:48.999Z,11.03
2023-11-24T22:20:53.058Z,11.04
2023-11-24T22:25:56.907Z,10.90
2023-11-24T22:31:01.868Z,10.84
2023-11-24T22:36:05.627Z,10.71
2023-11-24T22:41:09.252Z,10.69
2023-11-24T22:46:20.996Z,10.74
2023-11-24T22:51:25.562Z,10.81
2023-11-24T22:56:29.507Z,10.86
2023-11-24T23:01:34.822Z,10.89
2023-11-24T23:06:39.009Z,10.90
2023-11-24T23:11:42.394Z,10.86
2023-11-24T23:16:47.327Z,10.77
2023-11-24T23:21:50.743Z,10.72
2023-11-24T23:26:54.702Z,10.75
2023-11-24T23:32:00.107Z,10.72
2023-11-24T23:37:04.767Z,10.71
2023-11-24T23:42:08.376Z,10.72
2023-11-24T23:47:13.296Z,10.66
2023-11-24T23:52:16.891Z,10.62
2023-11-24T23:57:21.294Z,10.62
